createdAt,value
2023-02-27T00:04:37.537Z,79.25
2023-02-27T00:09:41.831Z,80.21
2023-02-27T00:14:43.643Z,80.41
2023-02-27T00:19:45.490Z,81.69
2023-02-27T00:24:47.137Z,81.84
2023-02-27T00:29:48.782Z,82.55
2023-02-27T00:34:50.479Z,82.56
2023-02-27T00:39:52.404Z,82.16
2023-02-27T00:44:54.411Z,81.90
2023-02-27T00:49:56.077Z,82.96
2023-02-27T00:54:57.682Z,83.06
2023-02-27T00:59:59.363Z,82.90
2023-02-27T01:05:01.012Z,82.83
2023-02-27T01:10:02.990Z,83.18
2023-02-27T01:15:06.080Z,82.95
2023-02-27T01:20:10.548Z,82.61
2023-02-27T01:25:12.210Z,81.94
2023-02-27T01:30:15.801Z,81.51
2023-02-27T01:35:19.264Z,81.56
2023-02-27T01:40:21.011Z,81.22
2023-02-27T01:45:28.395Z,81.34
2023-02-27T01:50:31.758Z,81.33
2023-02-27T01:55:37.949Z,82.08
2023-02-27T02:00:40.158Z,82.09
2023-02-27T02:05:43.995Z,82.27
2023-02-27T02:10:48.398Z,81.38
2023-02-27T02:16:19.508Z,81.15
2023-02-27T02:21:30.043Z,80.70
2023-02-27T02:26:35.484Z,80.50
2023-02-27T02:32:01.099Z,79.57
2023-02-27T02:37:57.002Z,79.29
2023-02-27T02:43:13.755Z,78.88
2023-02-27T02:48:27.045Z,77.69
2023-02-27T02:53:59.739Z,77.23
2023-02-27T02:59:16.820Z,76.85
2023-02-27T03:04:21.063Z,76.62
2023-02-27T03:09:34.768Z,76.47
2023-02-27T03:14:54.265Z,76.35
2023-02-27T03:20:01.992Z,76.39
2023-02-27T03:25:07.280Z,76.08
2023-02-27T03:30:14.085Z,76.04
2023-02-27T03:35:16.191Z,75.60
2023-02-27T03:40:31.780Z,74.91
2023-02-27T03:45:42.476Z,74.41
2023-02-27T03:50:44.449Z,74.64
2023-02-27T03:55:47.790Z,75.80
2023-02-27T04:00:49.665Z,75.93
2023-02-27T04:05:52.426Z,75.34
2023-02-27T04:11:03.985Z,75.91
2023-02-27T04:16:12.264Z,75.82
2023-02-27T04:21:30.660Z,75.71
2023-02-27T04:26:57.192Z,75.22
2023-02-27T04:32:04.792Z,74.71
2023-02-27T04:37:32.993Z,74.31
2023-02-27T04:42:40.206Z,73.26
2023-02-27T04:47:51.963Z,73.82
2023-02-27T04:53:03.624Z,74.00
2023-02-27T04:58:10.234Z,73.63
2023-02-27T05:03:18.490Z,74.41
2023-02-27T05:08:30.139Z,74.05
2023-02-27T05:13:43.524Z,74.20
2023-02-27T05:18:46.328Z,74.13
2023-02-27T05:23:51.207Z,73.97
2023-02-27T05:29:17.317Z,73.92
2023-02-27T05:34:26.872Z,73.56
2023-02-27T05:39:31.515Z,72.81
2023-02-27T05:44:37.483Z,72.92
2023-02-27T05:49:46.767Z,72.90
2023-02-27T05:55:43.940Z,73.86
2023-02-27T06:00:58.772Z,73.92
2023-02-27T06:06:03.702Z,73.75
2023-02-27T06:11:05.598Z,74.11
2023-02-27T06:16:09.419Z,73.75
2023-02-27T06:21:13.061Z,73.52
2023-02-27T06:26:15.704Z,73.23
2023-02-27T06:31:17.461Z,73.70
2023-02-27T06:36:19.103Z,73.34
2023-02-27T06:41:21.288Z,73.70
2023-02-27T06:46:22.931Z,73.89
2023-02-27T06:51:24.720Z,73.86
2023-02-27T06:56:26.601Z,73.55
2023-02-27T07:01:28.600Z,74.52
2023-02-27T07:07:35.453Z,74.43
2023-02-27T07:11:51.811Z,73.92
2023-02-27T07:16:56.339Z,73.57
2023-02-27T07:21:58.300Z,73.60
2023-02-27T07:26:59.983Z,73.00
2023-02-27T07:32:02.304Z,72.72
2023-02-27T07:37:04.084Z,72.83
2023-02-27T07:42:06.097Z,72.48
2023-02-27T07:47:08.996Z,71.63
2023-02-27T07:52:11.298Z,70.41
2023-02-27T07:57:13.136Z,69.17
2023-02-27T08:02:14.769Z,67.84
2023-02-27T08:07:16.568Z,66.59
2023-02-27T08:12:18.447Z,65.06
2023-02-27T08:17:20.041Z,65.20
2023-02-27T08:22:21.752Z,63.97
2023-02-27T08:27:23.703Z,64.44
2023-02-27T08:32:25.488Z,63.77
2023-02-27T08:37:28.834Z,63.75
2023-02-27T08:42:30.739Z,63.84
2023-02-27T08:47:32.394Z,63.06
2023-02-27T08:52:34.066Z,61.58
2023-02-27T08:57:35.856Z,61.09
2023-02-27T09:02:37.465Z,60.76
2023-02-27T09:07:39.151Z,60.68
2023-02-27T09:12:40.965Z,60.56
2023-02-27T09:17:42.747Z,61.09
2023-02-27T09:22:44.482Z,60.46
2023-02-27T09:27:46.456Z,60.55
2023-02-27T09:32:48.193Z,59.95
2023-02-27T09:37:50.031Z,61.42
2023-02-27T09:42:53.891Z,61.60
2023-02-27T09:48:15.924Z,61.72
2023-02-27T09:53:31.283Z,62.50
2023-02-27T09:58:43.847Z,62.79
2023-02-27T10:03:54.637Z,62.62
2023-02-27T10:09:30.732Z,61.71
2023-02-27T10:14:53.708Z,61.07
2023-02-27T10:19:58.368Z,60.95
2023-02-27T10:25:18.109Z,61.78
2023-02-27T10:30:34.616Z,60.04
2023-02-27T10:35:43.064Z,60.75
2023-02-27T10:40:47.840Z,60.38
2023-02-27T10:45:49.638Z,60.82
2023-02-27T10:50:52.300Z,60.37
2023-02-27T10:56:06.196Z,59.73
2023-02-27T11:01:10.559Z,59.89
2023-02-27T11:06:22.341Z,60.78
2023-02-27T11:11:28.624Z,59.91
2023-02-27T11:16:48.013Z,61.49
2023-02-27T11:22:07.604Z,63.44
2023-02-27T11:27:18.989Z,63.01
2023-02-27T11:32:20.865Z,62.43
2023-02-27T11:37:50.886Z,60.44
2023-02-27T11:42:56.233Z,59.09
2023-02-27T11:48:02.191Z,57.01
2023-02-27T11:53:19.862Z,57.81
2023-02-27T11:58:25.669Z,58.32
2023-02-27T12:03:59.804Z,60.92
2023-02-27T12:09:07.526Z,61.83
2023-02-27T12:14:09.076Z,61.82
2023-02-27T12:19:22.424Z,61.76
2023-02-27T12:24:31.287Z,61.46
2023-02-27T12:29:41.977Z,62.39
2023-02-27T12:34:50.251Z,61.76
2023-02-27T12:39:55.568Z,62.88
2023-02-27T12:45:15.561Z,62.31
2023-02-27T12:50:19.563Z,62.82
2023-02-27T12:55:30.935Z,61.71
2023-02-27T13:00:59.841Z,60.05
2023-02-27T13:06:18.864Z,59.44
2023-02-27T13:11:43.435Z,59.26
2023-02-27T13:16:53.864Z,59.38
2023-02-27T13:22:10.948Z,59.16
2023-02-27T13:27:22.322Z,58.78
2023-02-27T13:32:44.399Z,59.36
2023-02-27T13:37:55.345Z,59.46
2023-02-27T13:43:20.621Z,60.00
2023-02-27T13:48:41.747Z,60.77
2023-02-27T13:53:43.470Z,60.38
2023-02-27T13:58:45.378Z,59.33
2023-02-27T14:04:02.880Z,58.48
2023-02-27T14:09:15.244Z,58.31
2023-02-27T14:14:34.985Z,58.78
2023-02-27T14:19:46.588Z,59.96
2023-02-27T14:25:02.949Z,58.92
2023-02-27T14:30:10.305Z,59.29
2023-02-27T14:35:16.224Z,60.11
2023-02-27T14:40:29.888Z,59.14
2023-02-27T14:45:32.486Z,58.39
2023-02-27T14:50:37.457Z,58.39
2023-02-27T14:55:39.109Z,58.37
2023-02-27T15:00:42.418Z,58.48
2023-02-27T15:05:45.545Z,58.51
2023-02-27T15:10:48.223Z,57.38
2023-02-27T15:15:52.335Z,58.07
2023-02-27T15:20:59.232Z,57.33
2023-02-27T15:26:00.878Z,57.57
2023-02-27T15:31:02.798Z,58.34
2023-02-27T15:36:05.442Z,59.70
2023-02-27T15:41:08.623Z,60.15
2023-02-27T15:46:10.358Z,60.75
2023-02-27T15:51:12.295Z,60.56
2023-02-27T15:56:15.291Z,60.85
2023-02-27T16:01:23.135Z,60.44
2023-02-27T16:06:30.628Z,61.13
2023-02-27T16:11:37.481Z,61.19
2023-02-27T16:16:39.208Z,61.26
2023-02-27T16:22:06.756Z,61.08
2023-02-27T16:27:26.632Z,61.12
2023-02-27T16:32:29.426Z,61.25
2023-02-27T16:37:31.185Z,61.06
2023-02-27T16:42:32.872Z,61.86
2023-02-27T16:47:34.489Z,61.18
2023-02-27T16:52:36.385Z,60.91
2023-02-27T16:57:38.003Z,61.63
2023-02-27T17:02:39.826Z,61.80
2023-02-27T17:07:42.582Z,61.60
2023-02-27T17:12:44.403Z,61.97
2023-02-27T17:17:46.219Z,62.51
2023-02-27T17:22:47.855Z,62.50
2023-02-27T17:27:50.164Z,62.88
2023-02-27T17:32:51.959Z,63.35
2023-02-27T17:37:53.965Z,63.34
2023-02-27T17:42:55.562Z,63.63
2023-02-27T17:47:58.209Z,64.50
2023-02-27T17:53:00.087Z,65.79
2023-02-27T17:58:01.682Z,66.31
2023-02-27T18:03:03.342Z,66.80
2023-02-27T18:08:05.234Z,67.64
2023-02-27T18:13:06.848Z,67.73
2023-02-27T18:18:08.547Z,68.28
2023-02-27T18:23:10.540Z,69.94
2023-02-27T18:28:12.417Z,69.98
2023-02-27T18:33:14.043Z,70.31
2023-02-27T18:38:16.378Z,70.43
2023-02-27T18:43:18.012Z,71.19
2023-02-27T18:48:20.082Z,71.31
2023-02-27T18:53:21.878Z,71.37
2023-02-27T18:58:23.456Z,71.85
2023-02-27T19:03:27.303Z,71.33
2023-02-27T19:08:29.315Z,71.61
2023-02-27T19:13:31.167Z,70.94
2023-02-27T19:18:32.808Z,71.21
2023-02-27T19:23:36.205Z,71.52
2023-02-27T19:28:37.925Z,71.13
2023-02-27T19:33:40.439Z,71.15
2023-02-27T19:38:42.347Z,71.21
2023-02-27T19:43:44.063Z,71.82
2023-02-27T19:48:46.277Z,71.52
2023-02-27T19:53:48.602Z,72.39
2023-02-27T19:58:50.996Z,72.54
2023-02-27T20:03:53.225Z,72.72
2023-02-27T20:08:55.925Z,73.40
2023-02-27T20:13:57.983Z,72.97
2023-02-27T20:18:59.962Z,72.96
2023-02-27T20:24:01.927Z,72.29
2023-02-27T20:29:10.053Z,72.29
2023-02-27T20:34:15.666Z,71.50
2023-02-27T20:39:18.503Z,71.76
2023-02-27T20:44:20.123Z,72.50
2023-02-27T20:49:22.775Z,72.59
2023-02-27T20:54:25.212Z,72.73
2023-02-27T20:59:26.821Z,73.70
2023-02-27T21:04:42.489Z,73.91
2023-02-27T21:09:45.266Z,74.15
2023-02-27T21:14:49.360Z,75.31
2023-02-27T21:19:51.564Z,75.28
2023-02-27T21:24:53.740Z,75.63
2023-02-27T21:29:55.699Z,74.64
2023-02-27T21:34:57.329Z,74.85
2023-02-27T21:40:00.485Z,74.73
2023-02-27T21:45:02.309Z,73.96
2023-02-27T21:50:14.093Z,73.68
2023-02-27T21:55:16.344Z,73.57
2023-02-27T22:00:18.889Z,73.84
2023-02-27T22:05:21.264Z,74.32
2023-02-27T22:10:22.910Z,74.18
2023-02-27T22:15:24.681Z,74.65
2023-02-27T22:20:26.348Z,76.01
2023-02-27T22:25:28.586Z,76.65
2023-02-27T22:30:30.564Z,76.63
2023-02-27T22:35:32.569Z,77.02
2023-02-27T22:40:36.133Z,77.36
2023-02-27T22:45:37.718Z,76.72
2023-02-27T22:50:39.506Z,77.37
2023-02-27T22:55:41.334Z,76.25
2023-02-27T23:00:42.951Z,76.39
2023-02-27T23:05:46.526Z,76.57
2023-02-27T23:10:48.203Z,75.88
2023-02-27T23:15:49.907Z,75.80
2023-02-27T23:20:51.634Z,75.82
2023-02-27T23:25:53.660Z,76.30
2023-02-27T23:30:55.270Z,75.21
2023-02-27T23:35:57.749Z,75.12
2023-02-27T23:41:07.684Z,75.40
2023-02-27T23:46:12.027Z,75.53
2023-02-27T23:51:14.918Z,76.18
2023-02-27T23:56:18.645Z,75.33
